Time;durP1;ratioP1;P1;durP2;ratioP2;P2;SDS_P1;SDS_P2;PMS_P1;PMS_P2;Temp;Humidity;BMP_temperature;BMP_pressure;BME280_temperature;BME280_humidity;BME280_pressure;Samples;Min_cycle;Max_cycle;Signal;HPM_P1;HPM_P2
2020/12/30 00:00:50;;;;;;;3.57;3.00;;;6.70;41.40;;;;;;5091348;28;20161;-69
2020/12/30 00:03:16;;;;;;;4.63;3.27;;;6.60;40.90;;;;;;5091201;28;20201;-69
2020/12/30 00:05:42;;;;;;;3.20;3.00;;;6.60;41.70;;;;;;5090902;28;20493;-69
2020/12/30 00:08:08;;;;;;;2.80;2.63;;;6.90;41.50;;;;;;5090931;28;20261;-69
2020/12/30 00:10:34;;;;;;;2.80;2.60;;;6.70;40.90;;;;;;5091339;28;20433;-68
2020/12/30 00:13:00;;;;;;;2.70;2.50;;;6.70;41.20;;;;;;5090694;28;20185;-69
2020/12/30 00:15:25;;;;;;;2.90;2.70;;;6.70;41.10;;;;;;5090573;28;20440;-68
2020/12/30 00:17:51;;;;;;;3.20;2.97;;;6.70;41.10;;;;;;5090906;28;20411;-69
2020/12/30 00:20:18;;;;;;;2.80;2.60;;;6.90;40.90;;;;;;5090035;28;20178;-69
2020/12/30 00:22:45;;;;;;;3.20;2.90;;;6.80;40.90;;;;;;5091123;28;20178;-69
2020/12/30 00:25:11;;;;;;;2.90;2.63;;;6.90;41.60;;;;;;5089681;28;20455;-69
2020/12/30 00:27:38;;;;;;;3.50;3.30;;;6.90;40.90;;;;;;5090178;28;20809;-69
2020/12/30 00:30:09;;;;;;;3.20;2.90;;;6.90;40.80;;;;;;5090498;28;20807;-68
2020/12/30 00:32:35;;;;;;;2.80;2.60;;;6.80;41.00;;;;;;5090136;28;20495;-69
2020/12/30 00:35:01;;;;;;;3.50;3.20;;;6.70;41.10;;;;;;5089929;28;20435;-68
2020/12/30 00:37:26;;;;;;;3.13;2.60;;;6.80;41.80;;;;;;5090170;28;20506;-69
2020/12/30 00:39:52;;;;;;;3.20;2.90;;;6.50;42.20;;;;;;5090901;28;20327;-68
2020/12/30 00:42:17;;;;;;;3.20;2.70;;;6.20;43.40;;;;;;5090649;28;20173;-68
2020/12/30 00:44:43;;;;;;;4.00;2.30;;;5.80;43.80;;;;;;5090572;28;20281;-68
2020/12/30 00:47:08;;;;;;;2.70;2.50;;;5.50;45.40;;;;;;5090350;28;20208;-68
2020/12/30 00:49:34;;;;;;;2.47;2.27;;;5.50;45.60;;;;;;5090158;28;20583;-68
2020/12/30 00:51:59;;;;;;;2.50;2.40;;;5.80;44.90;;;;;;5090864;28;20217;-69
2020/12/30 00:54:25;;;;;;;3.33;2.90;;;6.10;44.30;;;;;;5090157;28;20760;-68
2020/12/30 00:56:51;;;;;;;2.60;2.50;;;6.10;43.40;;;;;;5089929;28;20669;-68
2020/12/30 00:59:18;;;;;;;2.40;2.20;;;6.10;43.50;;;;;;5090403;28;20543;-69
2020/12/30 01:01:44;;;;;;;2.60;2.40;;;6.30;43.00;;;;;;5090449;28;20875;-68
2020/12/30 01:04:10;;;;;;;2.10;2.00;;;6.30;42.70;;;;;;5090077;28;20435;-68
2020/12/30 01:06:36;;;;;;;3.03;2.70;;;6.30;42.10;;;;;;5090459;28;20483;-69
2020/12/30 01:09:05;;;;;;;2.63;2.50;;;6.30;43.30;;;;;;5090445;28;20411;-69
2020/12/30 01:11:31;;;;;;;2.40;2.20;;;6.20;43.20;;;;;;5090573;28;20414;-68
2020/12/30 01:13:58;;;;;;;2.70;2.50;;;6.40;42.50;;;;;;5090373;28;20421;-69
2020/12/30 01:16:24;;;;;;;5.03;3.53;;;6.40;41.70;;;;;;5090321;28;20177;-69
2020/12/30 01:18:49;;;;;;;2.40;2.30;;;6.10;42.80;;;;;;5090012;28;20408;-68
2020/12/30 01:21:15;;;;;;;2.37;2.27;;;5.80;44.00;;;;;;5090331;28;20903;-69
2020/12/30 01:23:41;;;;;;;1.83;1.73;;;5.70;44.10;;;;;;5090132;28;20195;-68
2020/12/30 01:26:07;;;;;;;2.40;2.20;;;5.80;43.90;;;;;;5090129;28;20455;-68
2020/12/30 01:28:33;;;;;;;2.30;2.17;;;5.70;44.10;;;;;;5090546;28;20170;-68
2020/12/30 01:30:58;;;;;;;2.97;2.77;;;5.80;44.80;;;;;;5090174;28;20454;-69
2020/12/30 01:33:24;;;;;;;2.60;2.40;;;6.10;44.10;;;;;;5090047;28;20207;-68
2020/12/30 01:35:49;;;;;;;2.40;2.20;;;6.30;42.90;;;;;;5090251;28;20205;-69
2020/12/30 01:38:15;;;;;;;2.07;1.97;;;6.00;42.90;;;;;;5089880;28;20183;-68
2020/12/30 01:40:40;;;;;;;2.30;2.20;;;5.90;43.50;;;;;;5090119;28;20328;-68
2020/12/30 01:43:06;;;;;;;3.90;2.23;;;5.90;43.70;;;;;;5090150;28;20171;-69
2020/12/30 01:45:31;;;;;;;3.23;2.57;;;5.90;43.40;;;;;;5091534;28;20180;-69
2020/12/30 01:47:57;;;;;;;2.43;2.23;;;5.90;43.90;;;;;;5093979;28;20179;-68
2020/12/30 01:50:23;;;;;;;2.53;2.43;;;5.90;44.80;;;;;;5094090;28;20182;-68
2020/12/30 01:52:48;;;;;;;2.73;2.53;;;5.80;44.50;;;;;;5093859;28;20182;-67
2020/12/30 01:55:19;;;;;;;5.20;2.17;;;5.90;44.10;;;;;;5093801;28;20286;-67
2020/12/30 01:57:44;;;;;;;2.37;2.17;;;6.00;43.80;;;;;;5093646;28;20167;-68
2020/12/30 02:00:10;;;;;;;2.30;2.10;;;6.10;43.20;;;;;;5093667;28;20789;-68
2020/12/30 02:02:38;;;;;;;2.53;2.37;;;6.00;43.70;;;;;;5093834;28;20432;-68
2020/12/30 02:05:07;;;;;;;2.80;2.40;;;6.20;43.00;;;;;;5093867;28;20195;-68
2020/12/30 02:07:33;;;;;;;2.60;2.40;;;6.30;42.70;;;;;;5093534;28;20513;-68
2020/12/30 02:10:02;;;;;;;2.70;2.50;;;6.20;43.20;;;;;;5093619;28;20409;-68
2020/12/30 02:12:28;;;;;;;3.20;2.90;;;6.00;43.60;;;;;;5093669;28;20412;-68
2020/12/30 02:14:53;;;;;;;2.30;2.20;;;6.10;43.30;;;;;;5093473;28;20960;-68
2020/12/30 02:17:19;;;;;;;3.23;2.63;;;5.80;44.00;;;;;;5093514;28;20420;-68
2020/12/30 02:19:47;;;;;;;2.43;2.23;;;5.80;44.10;;;;;;5093488;28;20278;-69
2020/12/30 02:22:20;;;;;;;2.60;2.40;;;5.70;45.00;;;;;;5093451;28;20171;-68
2020/12/30 02:24:46;;;;;;;3.03;2.50;;;5.80;44.60;;;;;;5093341;28;20902;-68
2020/12/30 02:27:11;;;;;;;2.43;2.30;;;5.90;45.00;;;;;;5092988;28;20460;-68
2020/12/30 02:29:37;;;;;;;2.37;2.27;;;5.80;44.00;;;;;;5093233;28;20167;-68
2020/12/30 02:32:03;;;;;;;2.60;2.50;;;5.80;44.80;;;;;;5093280;28;20177;-68
2020/12/30 02:34:29;;;;;;;1.93;1.80;;;5.90;44.40;;;;;;5093137;28;20201;-68
2020/12/30 02:36:55;;;;;;;1.90;1.80;;;6.00;44.60;;;;;;5093215;28;21015;-68
2020/12/30 02:39:21;;;;;;;2.33;2.13;;;5.80;44.10;;;;;;5093044;28;20533;-68
2020/12/30 02:41:48;;;;;;;1.87;1.73;;;5.90;44.90;;;;;;5092995;28;20416;-68
2020/12/30 02:44:14;;;;;;;2.40;2.20;;;6.10;45.10;;;;;;5092945;28;20198;-67
2020/12/30 02:46:39;;;;;;;2.00;1.90;;;5.80;44.60;;;;;;5092812;28;20464;-67
2020/12/30 02:49:05;;;;;;;3.20;2.13;;;5.80;44.30;;;;;;5092729;28;20216;-67
2020/12/30 02:51:30;;;;;;;1.73;1.63;;;5.80;44.60;;;;;;5092913;28;20178;-67
2020/12/30 02:53:56;;;;;;;2.80;2.57;;;5.80;44.70;;;;;;5092710;28;20201;-67
2020/12/30 02:56:21;;;;;;;2.37;2.20;;;5.90;44.80;;;;;;5092299;28;20541;-67
2020/12/30 02:58:47;;;;;;;2.00;1.67;;;6.10;44.00;;;;;;5092484;28;20262;-67
2020/12/30 03:01:14;;;;;;;1.93;1.83;;;6.10;43.70;;;;;;5092616;28;20184;-68
2020/12/30 03:03:40;;;;;;;2.20;1.90;;;6.10;43.20;;;;;;5092445;28;20509;-67
2020/12/30 03:06:07;;;;;;;1.90;1.80;;;6.20;43.20;;;;;;5092448;28;20448;-67
2020/12/30 03:08:33;;;;;;;1.83;1.73;;;6.00;43.50;;;;;;5092324;28;20437;-67
2020/12/30 03:11:00;;;;;;;2.10;1.97;;;6.20;43.40;;;;;;5091679;28;20743;-68
2020/12/30 03:13:25;;;;;;;2.30;2.10;;;6.30;42.80;;;;;;5092452;28;20427;-67
2020/12/30 03:15:51;;;;;;;2.00;1.90;;;6.30;43.60;;;;;;5092339;28;20412;-67
2020/12/30 03:18:17;;;;;;;2.20;2.00;;;6.50;42.80;;;;;;5092140;28;20167;-68
2020/12/30 03:20:42;;;;;;;4.00;1.90;;;6.50;42.20;;;;;;5092252;28;20409;-67
2020/12/30 03:23:08;;;;;;;1.67;1.57;;;6.50;41.80;;;;;;5092263;28;20260;-67
2020/12/30 03:25:34;;;;;;;1.70;1.60;;;6.40;42.50;;;;;;5091959;28;20563;-67
2020/12/30 03:28:01;;;;;;;1.90;1.80;;;6.60;42.40;;;;;;5092072;28;20173;-67
2020/12/30 03:30:26;;;;;;;2.47;1.57;;;6.60;41.90;;;;;;5092182;28;20415;-67
2020/12/30 03:32:53;;;;;;;2.10;2.00;;;6.60;41.80;;;;;;5092158;28;20773;-67
2020/12/30 03:35:20;;;;;;;1.60;1.50;;;6.50;41.80;;;;;;5091942;28;20201;-67
2020/12/30 03:37:46;;;;;;;1.70;1.60;;;6.30;42.30;;;;;;5091778;28;20416;-67
2020/12/30 03:40:11;;;;;;;2.10;2.00;;;6.50;42.60;;;;;;5091766;28;20481;-67
2020/12/30 03:42:37;;;;;;;1.67;1.57;;;6.60;42.00;;;;;;5091920;28;20420;-67
2020/12/30 03:45:03;;;;;;;1.80;1.53;;;6.40;42.60;;;;;;5091961;28;20282;-68
2020/12/30 03:47:30;;;;;;;1.80;1.70;;;6.40;42.60;;;;;;5091460;28;20529;-67
2020/12/30 03:49:59;;;;;;;1.87;1.77;;;6.30;42.60;;;;;;5091767;28;20450;-67
2020/12/30 03:52:24;;;;;;;1.80;1.70;;;6.40;42.50;;;;;;5091664;28;20761;-68
2020/12/30 03:54:50;;;;;;;2.00;1.90;;;6.50;42.60;;;;;;5091460;28;20424;-67
2020/12/30 03:57:15;;;;;;;2.37;2.17;;;6.60;42.10;;;;;;5091514;28;20647;-67
2020/12/30 03:59:41;;;;;;;2.30;2.10;;;6.40;42.20;;;;;;5091863;28;20174;-68
2020/12/30 04:02:06;;;;;;;2.60;1.80;;;6.30;42.70;;;;;;5091830;28;20182;-67
2020/12/30 04:04:32;;;;;;;2.30;2.20;;;6.50;42.50;;;;;;5091395;28;20206;-67
2020/12/30 04:06:57;;;;;;;1.60;1.50;;;6.50;41.90;;;;;;5091280;28;20560;-67
2020/12/30 04:09:23;;;;;;;2.03;1.87;;;6.50;42.00;;;;;;5090744;28;20177;-68
2020/12/30 04:11:48;;;;;;;3.67;1.97;;;6.60;41.80;;;;;;5091509;28;20170;-68
2020/12/30 04:14:14;;;;;;;2.20;1.93;;;6.60;41.50;;;;;;5091521;28;20732;-68
2020/12/30 04:16:40;;;;;;;2.27;2.07;;;6.40;41.70;;;;;;5091601;28;20535;-68
2020/12/30 04:19:05;;;;;;;2.47;2.37;;;6.50;41.00;;;;;;5091501;28;20795;-68
2020/12/30 04:21:31;;;;;;;3.97;2.30;;;6.60;40.80;;;;;;5091382;28;20439;-68
2020/12/30 04:23:56;;;;;;;2.10;1.90;;;6.50;40.90;;;;;;5090846;28;20213;-67
2020/12/30 04:26:22;;;;;;;1.80;1.70;;;6.50;41.20;;;;;;5091130;28;20741;-68
2020/12/30 04:28:49;;;;;;;2.40;2.20;;;6.60;40.60;;;;;;5091024;28;20199;-68
2020/12/30 04:31:17;;;;;;;1.70;1.60;;;6.50;40.30;;;;;;5091121;28;20404;-68
2020/12/30 04:33:42;;;;;;;2.13;2.03;;;6.50;40.50;;;;;;5090987;28;20466;-68
2020/12/30 04:36:08;;;;;;;2.00;1.90;;;6.50;40.40;;;;;;5090940;28;20837;-69
2020/12/30 04:38:35;;;;;;;2.23;2.03;;;6.50;40.70;;;;;;5090715;28;20177;-68
2020/12/30 04:41:03;;;;;;;1.73;1.63;;;6.70;39.90;;;;;;5091058;28;20483;-68
2020/12/30 04:43:30;;;;;;;4.70;2.27;;;6.70;39.90;;;;;;5090991;28;20942;-67
2020/12/30 04:45:58;;;;;;;2.83;2.13;;;6.70;39.90;;;;;;5091047;28;20455;-68
2020/12/30 04:48:26;;;;;;;2.03;1.90;;;6.60;39.80;;;;;;5090924;28;20426;-66
2020/12/30 04:50:52;;;;;;;2.60;2.40;;;6.50;40.50;;;;;;5091100;28;20913;-68
2020/12/30 04:53:22;;;;;;;2.30;1.60;;;6.60;40.00;;;;;;5090964;28;20409;-66
2020/12/30 04:55:52;;;;;;;1.80;1.70;;;6.70;40.00;;;;;;5091061;28;20420;-68
2020/12/30 04:58:18;;;;;;;2.13;2.03;;;6.60;40.20;;;;;;5091034;28;20506;-66
2020/12/30 05:00:48;;;;;;;2.07;1.60;;;6.70;40.40;;;;;;5091128;28;20412;-66
2020/12/30 05:03:16;;;;;;;2.50;1.50;;;6.90;39.60;;;;;;5090979;28;20855;-66
2020/12/30 05:05:42;;;;;;;2.10;1.67;;;6.80;39.70;;;;;;5090715;28;20417;-66
2020/12/30 05:08:08;;;;;;;3.10;1.57;;;6.70;39.90;;;;;;5090778;28;20411;-66
2020/12/30 05:10:37;;;;;;;1.90;1.70;;;6.60;39.80;;;;;;5090738;28;20404;-66
2020/12/30 05:13:03;;;;;;;1.83;1.73;;;6.70;39.90;;;;;;5090784;28;20409;-65
2020/12/30 05:15:28;;;;;;;1.83;1.73;;;6.80;39.90;;;;;;5090789;28;20820;-65
2020/12/30 05:17:54;;;;;;;2.37;1.50;;;6.80;39.90;;;;;;5090560;28;20171;-65
2020/12/30 05:20:20;;;;;;;1.60;1.50;;;6.80;39.60;;;;;;5093654;28;20222;-66
2020/12/30 05:22:46;;;;;;;3.17;1.87;;;6.90;39.60;;;;;;5094610;28;20178;-66
2020/12/30 05:25:12;;;;;;;1.90;1.80;;;6.50;39.70;;;;;;5094324;28;20820;-66
2020/12/30 05:27:38;;;;;;;1.80;1.70;;;6.40;41.10;;;;;;5094228;28;20210;-66
2020/12/30 05:30:04;;;;;;;2.27;2.00;;;6.60;40.00;;;;;;5094546;28;20432;-65
2020/12/30 05:32:34;;;;;;;2.13;1.93;;;6.60;39.80;;;;;;5094472;28;20395;-66
2020/12/30 05:34:59;;;;;;;3.70;1.80;;;6.60;41.10;;;;;;5094298;28;20428;-69
2020/12/30 05:37:30;;;;;;;3.40;2.40;;;6.70;39.90;;;;;;5094153;28;20514;-66
2020/12/30 05:39:56;;;;;;;1.90;1.80;;;6.70;39.90;;;;;;5094460;28;20174;-66
2020/12/30 05:42:21;;;;;;;1.80;1.70;;;6.80;39.90;;;;;;5094382;28;20461;-66
2020/12/30 05:44:50;;;;;;;2.17;2.07;;;6.90;39.70;;;;;;5094572;28;20691;-66
2020/12/30 05:47:21;;;;;;;2.50;2.30;;;6.90;39.30;;;;;;5093808;28;20214;-66
2020/12/30 05:49:49;;;;;;;3.67;1.97;;;7.00;39.90;;;;;;5094134;28;20407;-66
2020/12/30 05:52:16;;;;;;;2.00;1.90;;;6.90;39.00;;;;;;5094185;28;20762;-66
2020/12/30 05:54:49;;;;;;;3.30;2.13;;;6.90;39.20;;;;;;5093976;28;20435;-66
2020/12/30 05:57:28;;;;;;;1.90;1.70;;;6.80;39.20;;;;;;5093785;28;20435;-66
2020/12/30 05:59:56;;;;;;;1.70;1.53;;;6.70;39.40;;;;;;5093883;28;20407;-66
2020/12/30 06:02:27;;;;;;;2.07;1.87;;;6.60;39.80;;;;;;5093814;28;21004;-66
2020/12/30 06:05:07;;;;;;;1.80;1.70;;;6.60;39.80;;;;;;5093703;28;20425;-66
2020/12/30 06:07:35;;;;;;;4.20;2.53;;;6.70;39.90;;;;;;5093452;28;20512;-66
2020/12/30 06:10:02;;;;;;;1.90;1.70;;;6.70;39.40;;;;;;5093635;28;20415;-66
2020/12/30 06:12:31;;;;;;;2.03;1.70;;;6.80;39.20;;;;;;5093557;28;20452;-66
2020/12/30 06:14:56;;;;;;;1.83;1.73;;;6.80;39.60;;;;;;5093438;28;20424;-65
2020/12/30 06:17:30;;;;;;;5.23;1.70;;;6.80;38.70;;;;;;5093305;28;20413;-66
2020/12/30 06:19:56;;;;;;;2.80;1.57;;;7.00;38.70;;;;;;5093423;28;20219;-66
2020/12/30 06:22:23;;;;;;;2.53;1.80;;;7.10;38.60;;;;;;5093424;28;20873;-66
2020/12/30 06:24:52;;;;;;;1.50;1.40;;;7.00;38.20;;;;;;5093297;28;20443;-66
2020/12/30 06:27:27;;;;;;;2.20;2.00;;;6.60;39.80;;;;;;5093205;28;20459;-66
2020/12/30 06:29:57;;;;;;;1.20;1.10;;;6.50;39.70;;;;;;5093186;28;20407;-66
2020/12/30 06:32:31;;;;;;;1.80;1.70;;;6.30;40.00;;;;;;5092678;28;20958;-66
2020/12/30 06:34:57;;;;;;;1.90;1.73;;;6.30;40.60;;;;;;5093143;28;20451;-66
2020/12/30 06:37:33;;;;;;;2.90;2.00;;;6.20;40.50;;;;;;5092904;28;20423;-66
2020/12/30 06:40:21;;;;;;;1.90;1.53;;;6.20;41.70;;;;;;5093014;28;20922;-66
2020/12/30 06:42:49;;;;;;;4.20;2.20;;;6.40;40.00;;;;;;5093044;28;20412;-69
2020/12/30 06:45:35;;;;;;;2.40;2.20;;;6.40;40.60;;;;;;5092942;28;20478;-66
2020/12/30 06:48:00;;;;;;;2.27;2.17;;;6.40;40.80;;;;;;5092578;28;20478;-66
2020/12/30 06:50:27;;;;;;;5.77;3.03;;;6.20;40.50;;;;;;5092958;28;20450;-66
2020/12/30 06:52:52;;;;;;;2.63;2.43;;;6.20;41.70;;;;;;5092907;28;20174;-66
2020/12/30 06:55:38;;;;;;;2.07;1.97;;;6.40;40.90;;;;;;5092716;28;20439;-66
2020/12/30 06:58:03;;;;;;;3.50;2.90;;;6.40;40.10;;;;;;5091010;28;20189;-67
2020/12/30 07:00:34;;;;;;;5.20;2.37;;;6.60;39.80;;;;;;5092790;28;20802;-66
2020/12/30 07:03:16;;;;;;;2.80;2.60;;;6.50;39.70;;;;;;5092725;28;20192;-67
2020/12/30 07:05:43;;;;;;;2.50;2.30;;;6.70;39.60;;;;;;5092896;28;20437;-66
2020/12/30 07:08:09;;;;;;;3.27;2.37;;;6.50;39.90;;;;;;5092790;28;20969;-66
2020/12/30 07:10:45;;;;;;;2.27;2.13;;;6.70;39.90;;;;;;5092654;28;20576;-65
2020/12/30 07:13:26;;;;;;;2.60;2.13;;;6.50;39.70;;;;;;5092786;28;20263;-66
2020/12/30 07:16:18;;;;;;;2.10;2.00;;;6.30;40.70;;;;;;5092430;28;20691;-66
2020/12/30 07:18:50;;;;;;;3.57;2.10;;;6.60;40.20;;;;;;5092206;28;20424;-65
2020/12/30 07:21:17;;;;;;;3.63;2.90;;;6.70;39.90;;;;;;5092437;28;20500;-65
2020/12/30 07:23:44;;;;;;;2.87;2.20;;;6.60;39.80;;;;;;5092083;28;20447;-65
2020/12/30 07:26:18;;;;;;;2.43;2.30;;;6.50;40.20;;;;;;5092152;28;20448;-65
2020/12/30 07:28:45;;;;;;;3.53;2.13;;;6.60;39.80;;;;;;5091944;28;20408;-65
2020/12/30 07:31:12;;;;;;;2.37;2.27;;;6.60;39.80;;;;;;5092126;28;20777;-66
2020/12/30 07:33:38;;;;;;;3.07;1.67;;;6.60;39.80;;;;;;5089271;28;20447;-66
2020/12/30 07:36:04;;;;;;;2.57;2.37;;;6.70;39.90;;;;;;5088247;28;20773;-66
2020/12/30 07:38:32;;;;;;;2.97;2.77;;;6.70;40.30;;;;;;5090220;28;20294;-66
2020/12/30 07:41:05;;;;;;;2.60;2.40;;;6.40;40.10;;;;;;5090898;28;20492;-65
2020/12/30 07:43:52;;;;;;;2.93;2.53;;;6.30;40.90;;;;;;5089935;28;20439;-65
2020/12/30 07:46:19;;;;;;;3.00;2.80;;;6.20;41.30;;;;;;5091243;28;20531;-65
2020/12/30 07:48:45;;;;;;;3.20;2.80;;;6.30;40.90;;;;;;5091370;28;20419;-66
2020/12/30 07:51:12;;;;;;;2.27;2.17;;;6.10;41.60;;;;;;5091696;28;20549;-65
2020/12/30 07:53:38;;;;;;;2.70;2.50;;;6.10;42.00;;;;;;5079712;28;20495;-66
2020/12/30 07:56:04;;;;;;;3.10;2.20;;;6.10;41.70;;;;;;5079032;28;21004;-66
2020/12/30 07:58:29;;;;;;;3.80;2.70;;;6.00;42.00;;;;;;5080353;28;20187;-66
2020/12/30 08:00:55;;;;;;;4.90;3.10;;;6.00;42.90;;;;;;5080807;28;20271;-66
2020/12/30 08:03:21;;;;;;;4.80;3.60;;;6.10;41.80;;;;;;5084222;28;20217;-66
2020/12/30 08:05:51;;;;;;;3.33;2.53;;;6.40;40.90;;;;;;5091062;28;20412;-66
2020/12/30 08:08:19;;;;;;;2.67;2.50;;;6.00;41.90;;;;;;5090780;28;20423;-66
2020/12/30 08:10:55;;;;;;;2.83;2.63;;;6.00;41.90;;;;;;5091031;28;20409;-66
2020/12/30 08:13:21;;;;;;;3.40;2.57;;;6.00;42.40;;;;;;5090863;28;20935;-65
2020/12/30 08:15:52;;;;;;;3.00;2.57;;;6.00;41.90;;;;;;5090896;28;20401;-65
2020/12/30 08:18:18;;;;;;;3.20;2.67;;;6.00;42.40;;;;;;5090824;28;20202;-66
2020/12/30 08:20:44;;;;;;;3.27;2.60;;;6.10;41.90;;;;;;5091063;28;20557;-66
2020/12/30 08:23:09;;;;;;;2.80;2.60;;;6.10;41.80;;;;;;5090666;28;20532;-67
2020/12/30 08:25:35;;;;;;;3.37;3.07;;;6.50;43.40;;;;;;5090429;28;20194;-67
2020/12/30 08:28:04;;;;;;;2.83;2.40;;;7.00;46.70;;;;;;5089489;28;20170;-69
2020/12/30 08:30:33;;;;;;;2.30;2.13;;;7.80;40.80;;;;;;5090537;28;20256;-68
2020/12/30 08:33:08;;;;;;;2.47;2.37;;;8.20;47.60;;;;;;5090837;28;20441;-68
2020/12/30 08:35:43;;;;;;;3.20;2.53;;;8.30;41.90;;;;;;5090525;28;20420;-67
2020/12/30 08:38:17;;;;;;;3.93;2.60;;;9.40;40.80;;;;;;5090033;28;20491;-67
2020/12/30 08:40:47;;;;;;;3.37;2.23;;;8.70;34.60;;;;;;5090885;28;21016;-67
2020/12/30 08:43:44;;;;;;;4.00;2.30;;;7.80;36.10;;;;;;5090800;28;20529;-67
2020/12/30 08:46:18;;;;;;;4.07;2.43;;;7.40;37.10;;;;;;5090317;28;20813;-66
2020/12/30 08:48:49;;;;;;;1.63;1.53;;;7.00;38.30;;;;;;5090512;28;20397;-66
2020/12/30 08:51:33;;;;;;;2.27;2.13;;;6.50;39.70;;;;;;5090645;28;20416;-67
2020/12/30 08:54:00;;;;;;;2.40;2.30;;;6.60;39.80;;;;;;5091246;28;20431;-67
2020/12/30 08:56:26;;;;;;;2.00;1.90;;;6.50;39.80;;;;;;5094981;28;20913;-67
2020/12/30 08:58:56;;;;;;;2.40;2.17;;;6.60;39.90;;;;;;5094608;28;20411;-67
2020/12/30 09:01:24;;;;;;;3.37;2.03;;;6.70;39.90;;;;;;5094601;28;20421;-67
2020/12/30 09:03:49;;;;;;;2.20;1.70;;;6.90;39.20;;;;;;5094621;28;20863;-67
2020/12/30 09:06:29;;;;;;;1.90;1.80;;;7.10;38.30;;;;;;5094565;28;20542;-67
2020/12/30 09:09:06;;;;;;;2.00;1.60;;;6.80;38.50;;;;;;5094353;28;20263;-67
2020/12/30 09:11:32;;;;;;;1.73;1.63;;;6.90;38.20;;;;;;5094636;28;20472;-67
2020/12/30 09:13:58;;;;;;;2.00;1.80;;;7.10;37.80;;;;;;5094230;28;20439;-67
2020/12/30 09:16:23;;;;;;;2.17;1.73;;;6.90;38.00;;;;;;5082911;28;20189;-67
2020/12/30 09:18:49;;;;;;;3.97;1.90;;;6.70;39.20;;;;;;5073933;28;20649;-68
2020/12/30 09:21:27;;;;;;;2.03;1.93;;;6.50;39.70;;;;;;5073890;28;20212;-67
2020/12/30 09:23:52;;;;;;;2.17;2.07;;;6.80;40.00;;;;;;5073646;28;20459;-67
2020/12/30 09:26:29;;;;;;;1.90;1.80;;;7.00;38.70;;;;;;5073892;28;20496;-67
2020/12/30 09:28:54;;;;;;;2.37;2.20;;;6.50;38.70;;;;;;5073480;28;20532;-69
2020/12/30 09:31:21;;;;;;;2.30;2.20;;;6.50;39.70;;;;;;5073636;28;20397;-68
2020/12/30 09:33:47;;;;;;;2.60;2.10;;;6.70;39.90;;;;;;5073830;28;20186;-66
2020/12/30 09:36:14;;;;;;;2.30;2.20;;;6.50;39.70;;;;;;5073521;28;20426;-68
2020/12/30 09:38:39;;;;;;;3.27;1.70;;;6.80;39.60;;;;;;5073533;28;20170;-67
2020/12/30 09:41:13;;;;;;;2.40;2.00;;;7.00;39.00;;;;;;5073518;28;20911;-67
2020/12/30 09:43:45;;;;;;;2.57;2.00;;;6.80;39.10;;;;;;5082504;28;20254;-67
2020/12/30 09:46:19;;;;;;;5.43;2.60;;;6.70;39.80;;;;;;5087327;28;21043;-66
2020/12/30 09:48:44;;;;;;;2.47;2.00;;;6.80;39.30;;;;;;5083547;28;20413;-67
2020/12/30 09:51:09;;;;;;;3.23;2.00;;;6.90;39.80;;;;;;5093516;28;20465;-67
2020/12/30 09:53:35;;;;;;;1.80;1.70;;;7.30;38.50;;;;;;5093773;28;20695;-67
2020/12/30 09:56:00;;;;;;;3.13;2.30;;;6.70;38.80;;;;;;5093919;28;20175;-66
2020/12/30 09:58:26;;;;;;;1.67;1.57;;;6.80;39.30;;;;;;5093308;28;20892;-66
2020/12/30 10:00:51;;;;;;;1.80;1.63;;;6.80;38.70;;;;;;5093400;28;20180;-67
2020/12/30 10:03:17;;;;;;;5.90;2.60;;;6.80;38.80;;;;;;5093491;28;20170;-69
2020/12/30 10:05:42;;;;;;;3.23;2.20;;;6.60;39.80;;;;;;5092021;28;20174;-68
2020/12/30 10:08:08;;;;;;;1.73;1.63;;;6.80;39.10;;;;;;5090411;28;20189;-68
2020/12/30 10:10:33;;;;;;;1.67;1.57;;;6.80;38.90;;;;;;5068752;28;20289;-68
2020/12/30 10:12:59;;;;;;;2.80;1.90;;;6.80;39.10;;;;;;5067181;28;20175;-70
2020/12/30 10:15:27;;;;;;;2.53;2.33;;;7.00;39.20;;;;;;5081035;28;20208;-68
2020/12/30 10:17:52;;;;;;;3.43;2.40;;;7.10;38.30;;;;;;5087153;28;20902;-68
2020/12/30 10:20:18;;;;;;;1.83;1.43;;;7.10;38.20;;;;;;5086134;28;20557;-69
2020/12/30 10:22:45;;;;;;;2.70;2.50;;;7.20;37.60;;;;;;5066606;28;20182;-68
2020/12/30 10:25:12;;;;;;;3.00;1.83;;;7.10;37.50;;;;;;5066309;28;20426;-68
2020/12/30 10:27:38;;;;;;;3.13;2.00;;;7.10;38.10;;;;;;5066334;28;20460;-70
2020/12/30 10:30:08;;;;;;;2.77;1.50;;;6.90;38.50;;;;;;5066371;28;20904;-68
2020/12/30 10:32:35;;;;;;;1.77;1.67;;;7.20;37.40;;;;;;5066308;28;20425;-69
2020/12/30 10:35:00;;;;;;;2.60;2.40;;;7.00;37.80;;;;;;5066177;28;20436;-70
2020/12/30 10:37:26;;;;;;;2.47;1.90;;;6.90;37.90;;;;;;5066028;28;20783;-67
2020/12/30 10:39:51;;;;;;;1.97;1.77;;;7.00;37.90;;;;;;5066575;28;20183;-69
2020/12/30 10:42:18;;;;;;;1.87;1.70;;;7.10;37.50;;;;;;5066306;28;20185;-67
2020/12/30 10:44:44;;;;;;;2.17;1.90;;;7.30;37.80;;;;;;5069261;28;20194;-68
2020/12/30 10:47:09;;;;;;;1.40;1.30;;;7.40;36.40;;;;;;5091187;28;20501;-70
2020/12/30 10:49:35;;;;;;;2.70;1.50;;;7.40;36.50;;;;;;5090888;28;20178;-66
2020/12/30 10:52:01;;;;;;;2.63;1.63;;;7.50;37.00;;;;;;5092156;28;20174;-68
2020/12/30 10:54:26;;;;;;;4.10;2.33;;;7.60;36.50;;;;;;5091671;28;20743;-68
2020/12/30 10:56:54;;;;;;;7.60;2.17;;;7.50;36.20;;;;;;5091664;28;20184;-68
2020/12/30 10:59:20;;;;;;;2.50;1.87;;;7.60;36.30;;;;;;5092064;28;20170;-68
2020/12/30 11:01:49;;;;;;;2.27;1.67;;;7.70;36.00;;;;;;5092516;28;20421;-68
2020/12/30 11:04:15;;;;;;;1.60;1.50;;;7.70;35.60;;;;;;5092512;28;21022;-68
2020/12/30 11:06:40;;;;;;;1.70;1.60;;;7.90;36.30;;;;;;5092103;28;20770;-68
2020/12/30 11:09:15;;;;;;;1.40;1.30;;;8.00;35.40;;;;;;5092153;28;20174;-68
2020/12/30 11:11:40;;;;;;;1.90;1.33;;;7.90;35.40;;;;;;5092491;28;20687;-67
2020/12/30 11:14:06;;;;;;;1.53;1.43;;;7.90;35.30;;;;;;5091927;28;20509;-67
2020/12/30 11:16:32;;;;;;;2.00;1.67;;;7.80;35.90;;;;;;5091836;28;20181;-66
2020/12/30 11:18:57;;;;;;;1.50;1.40;;;7.90;35.70;;;;;;5092101;28;20458;-67
2020/12/30 11:21:23;;;;;;;2.63;1.10;;;7.90;35.80;;;;;;5091766;28;20540;-67
2020/12/30 11:23:49;;;;;;;3.40;1.60;;;8.00;35.80;;;;;;5091791;28;20575;-67
2020/12/30 11:26:14;;;;;;;1.33;1.23;;;8.10;36.30;;;;;;5091926;28;20576;-66
2020/12/30 11:28:40;;;;;;;3.37;1.43;;;8.20;35.20;;;;;;5091331;28;20170;-66
2020/12/30 11:31:07;;;;;;;1.40;1.30;;;8.30;35.50;;;;;;5091786;28;20182;-66
2020/12/30 11:33:32;;;;;;;1.60;1.30;;;8.00;35.90;;;;;;5091751;28;20204;-66
2020/12/30 11:35:58;;;;;;;2.53;1.63;;;8.20;35.80;;;;;;5091445;28;20409;-66
2020/12/30 11:38:24;;;;;;;1.73;1.63;;;8.30;36.10;;;;;;5091456;28;20174;-66
2020/12/30 11:40:49;;;;;;;2.00;1.67;;;8.30;35.40;;;;;;5091968;28;20177;-66
2020/12/30 11:43:15;;;;;;;1.83;1.40;;;8.20;35.60;;;;;;5091046;28;20245;-66
2020/12/30 11:45:40;;;;;;;3.80;1.90;;;8.30;37.10;;;;;;5091127;28;20171;-66
2020/12/30 11:48:06;;;;;;;1.70;1.60;;;8.30;36.00;;;;;;5091328;28;20175;-66
2020/12/30 11:50:33;;;;;;;1.80;1.70;;;8.30;35.60;;;;;;5091822;28;20179;-66
2020/12/30 11:52:59;;;;;;;1.47;1.37;;;8.20;35.70;;;;;;5091422;28;20466;-66
2020/12/30 11:55:26;;;;;;;4.40;1.90;;;8.30;36.20;;;;;;5091290;28;20437;-66
2020/12/30 11:57:51;;;;;;;1.60;1.50;;;8.30;35.80;;;;;;5090933;28;20437;-66
2020/12/30 12:00:17;;;;;;;4.73;1.60;;;8.00;36.90;;;;;;5091705;28;20803;-66
2020/12/30 12:02:42;;;;;;;2.53;2.33;;;7.90;37.20;;;;;;5091290;28;20539;-66
2020/12/30 12:05:12;;;;;;;2.23;1.40;;;8.10;36.70;;;;;;5090931;28;20199;-66
2020/12/30 12:07:38;;;;;;;4.90;1.53;;;8.10;36.20;;;;;;5090936;28;20213;-66
2020/12/30 12:10:05;;;;;;;2.77;2.57;;;8.10;36.80;;;;;;5091188;28;20994;-66
2020/12/30 12:12:31;;;;;;;1.80;1.50;;;8.00;37.20;;;;;;5090837;28;20447;-66
2020/12/30 12:14:56;;;;;;;2.60;1.87;;;8.10;36.80;;;;;;5089613;28;20483;-66
2020/12/30 12:17:22;;;;;;;1.87;1.73;;;8.10;36.90;;;;;;5091172;28;20178;-66
2020/12/30 12:19:48;;;;;;;3.13;1.90;;;7.70;37.90;;;;;;5090905;28;20673;-66
2020/12/30 12:22:14;;;;;;;1.50;1.40;;;7.90;37.70;;;;;;5079670;28;20218;-69
2020/12/30 12:24:39;;;;;;;5.93;1.73;;;7.90;38.20;;;;;;5066331;28;20352;-66
2020/12/30 12:27:05;;;;;;;2.03;1.93;;;8.10;37.20;;;;;;5042797;28;20839;-65
2020/12/30 12:29:34;;;;;;;2.07;1.70;;;8.20;37.20;;;;;;4987802;28;20498;-65
2020/12/30 12:32:07;;;;;;;3.80;2.33;;;8.20;37.10;;;;;;4985274;28;20269;-63
2020/12/30 12:34:34;;;;;;;3.23;2.30;;;8.10;36.80;;;;;;4985181;28;20520;-63
2020/12/30 12:37:00;;;;;;;4.43;2.37;;;8.20;36.90;;;;;;4985039;28;20928;-63
2020/12/30 12:39:25;;;;;;;2.53;2.30;;;8.20;37.50;;;;;;4985074;28;20463;-63
2020/12/30 12:41:55;;;;;;;3.10;2.10;;;8.10;37.10;;;;;;5003405;28;20193;-63
2020/12/30 12:44:21;;;;;;;2.10;2.00;;;8.10;37.00;;;;;;5004890;28;20209;-63
2020/12/30 12:46:47;;;;;;;9.93;3.13;;;8.30;37.50;;;;;;5004803;28;20469;-65
2020/12/30 12:49:14;;;;;;;2.63;2.43;;;8.30;36.10;;;;;;5004627;28;20420;-65
2020/12/30 12:51:44;;;;;;;1.97;1.87;;;8.30;36.50;;;;;;5004717;28;20464;-64
2020/12/30 12:54:09;;;;;;;1.90;1.80;;;8.40;36.40;;;;;;5004488;28;20440;-65
2020/12/30 12:56:35;;;;;;;2.50;2.30;;;8.50;36.30;;;;;;5004332;28;20502;-65
2020/12/30 12:59:00;;;;;;;1.87;1.77;;;8.40;36.10;;;;;;5006199;28;20509;-66